KSLE

McNary Field Airport

Salem, Oregon, USA
KSLE 200822Z 2008/2106 34003KT 1/2SM FG VV002 FM201100 VRB03KT 4SM -RA BR BKN015 OVC070 FM201800 17005KT 5SM -RA BR FEW008 BKN015 OVC030
Issued Valid From Valid To
Jan-20 @ 08:22 UTC
(3 hours ago)
Jan-20 @ 08:00 UTC
(3 hours ago)
Jan-21 @ 06:00 UTC
(in 19 hours)
Expired Click to View Jan-20 @ 08:00 to Jan-20 @ 11:00
KSLE 200822Z 2008/2106 34003KT 1/2SM FG VV002
Wind Visibility Clouds Conditions
340° at 3 knots 1/2 miles
  • Vertical visibility at 200' AGL
  • Fog
From Jan-20 @ 11:00 to Jan-20 @ 18:00
FM201100 VRB03KT 4SM -RA BR BKN015 OVC070
Wind Visibility Clouds Conditions
Variable at 3 knots 4 miles
  • Broken at 1,500' AGL
  • Overcast at 7,000' AGL
  • Light Rain
  • Mist
From Jan-20 @ 18:00 to Jan-21 @ 06:00
FM201800 17005KT 5SM -RA BR FEW008 BKN015 OVC030
Wind Visibility Clouds Conditions
170° at 5 knots 5 miles
  • Few at 800' AGL
  • Broken at 1,500' AGL
  • Overcast at 3,000' AGL
  • Light Rain
  • Mist
KSLE 200822Z 2008/2106 34003KT 1/2SM FG VV002 FM201100 VRB03KT 4SM -RA BR BKN015 OVC070 FM201800 17005KT 5SM -RA BR FEW008 BKN015 OVC030
Issued Jan-20 @ 08:22 UTC
(3 hours ago)
Valid From Jan-20 @ 08:00 UTC
(3 hours ago)
Valid To Jan-21 @ 06:00 UTC
(in 19 hours)
Jan-20 @ 08:00 - Jan-20 @ 11:00
Wind Visibility
340° at 3 knots 1/2 miles
Clouds
  • Vertical visibility at 200' AGL
Conditions
  • Fog
From Jan-20 @ 11:00 - Jan-20 @ 18:00
Wind Visibility
Variable at 3 knots 4 miles
Clouds
  • Broken at 1,500' AGL
  • Overcast at 7,000' AGL
Conditions
  • Light Rain
  • Mist
From Jan-20 @ 18:00 - Jan-21 @ 06:00
Wind Visibility
170° at 5 knots 5 miles
Clouds
  • Few at 800' AGL
  • Broken at 1,500' AGL
  • Overcast at 3,000' AGL
Conditions
  • Light Rain
  • Mist